createdAt,value
2018-09-13T00:01:00.567Z,13.40
2018-09-13T00:03:28.887Z,13.40
2018-09-13T00:05:57.155Z,13.40
2018-09-13T00:08:25.418Z,13.50
2018-09-13T00:10:53.675Z,13.50
2018-09-13T00:13:21.932Z,13.50
2018-09-13T00:15:50.175Z,13.50
2018-09-13T00:18:18.530Z,13.50
2018-09-13T00:20:46.752Z,13.50
2018-09-13T00:23:14.995Z,13.50
2018-09-13T00:25:43.255Z,13.40
2018-09-13T00:28:11.488Z,13.40
2018-09-13T00:30:39.739Z,13.40
2018-09-13T00:33:07.987Z,13.30
2018-09-13T00:35:36.304Z,13.30
2018-09-13T00:38:04.573Z,13.30
2018-09-13T00:40:32.836Z,13.30
2018-09-13T00:43:01.088Z,13.30
2018-09-13T00:45:29.354Z,13.30
2018-09-13T00:47:57.597Z,13.30
2018-09-13T00:50:25.947Z,13.30
2018-09-13T00:52:54.179Z,13.20
2018-09-13T00:55:22.435Z,13.10
2018-09-13T00:57:50.667Z,13.10
2018-09-13T01:00:18.959Z,13.10
2018-09-13T01:02:47.204Z,13.10
2018-09-13T01:05:15.459Z,13.10
2018-09-13T01:07:43.688Z,13.10
2018-09-13T01:10:12.950Z,13.10
2018-09-13T01:12:41.202Z,13.10
2018-09-13T01:15:09.448Z,13.00
2018-09-13T01:17:37.687Z,13.00
2018-09-13T01:20:05.939Z,13.10
2018-09-13T01:22:34.175Z,13.10
2018-09-13T01:25:02.402Z,13.10
2018-09-13T01:27:30.669Z,13.10
2018-09-13T01:29:58.910Z,13.00
2018-09-13T01:32:27.167Z,13.10
2018-09-13T01:34:55.429Z,13.10
2018-09-13T01:37:23.675Z,13.00
2018-09-13T01:39:51.903Z,13.00
2018-09-13T01:42:20.149Z,13.00
2018-09-13T01:44:48.404Z,12.90
2018-09-13T01:47:16.633Z,12.90
2018-09-13T01:49:44.875Z,12.90
2018-09-13T01:52:13.144Z,12.90
2018-09-13T01:54:41.371Z,12.80
2018-09-13T01:57:09.607Z,12.80
2018-09-13T01:59:37.887Z,12.80
2018-09-13T02:02:06.112Z,12.80
2018-09-13T02:04:34.334Z,12.80
2018-09-13T02:07:02.578Z,12.70
2018-09-13T02:09:30.810Z,12.80
2018-09-13T02:11:59.085Z,12.70
2018-09-13T02:14:27.360Z,12.80
2018-09-13T02:16:55.676Z,12.80
2018-09-13T02:19:23.887Z,12.80
2018-09-13T02:21:52.126Z,12.80
2018-09-13T02:24:20.372Z,12.80
2018-09-13T02:26:48.640Z,12.70
2018-09-13T02:29:16.903Z,12.80
2018-09-13T02:31:45.156Z,12.80
2018-09-13T02:34:13.398Z,12.80
2018-09-13T02:36:41.627Z,12.80
2018-09-13T02:39:10.667Z,12.70
2018-09-13T02:41:39.199Z,12.70
2018-09-13T02:44:08.607Z,12.70
2018-09-13T02:46:37.397Z,12.70
2018-09-13T02:49:05.676Z,12.70
2018-09-13T02:51:33.871Z,12.70
2018-09-13T02:54:02.126Z,12.60
2018-09-13T02:56:30.530Z,12.60
2018-09-13T02:58:58.782Z,12.60
2018-09-13T03:01:27.039Z,12.60
2018-09-13T03:03:55.285Z,12.50
2018-09-13T03:06:23.556Z,12.60
2018-09-13T03:08:51.828Z,12.60
2018-09-13T03:11:20.075Z,12.50
2018-09-13T03:13:48.467Z,12.50
2018-09-13T03:16:16.718Z,12.50
2018-09-13T03:18:44.971Z,12.50
2018-09-13T03:21:13.211Z,12.40
2018-09-13T03:23:41.487Z,12.40
2018-09-13T03:26:09.728Z,12.40
2018-09-13T03:28:37.983Z,12.30
2018-09-13T03:31:06.551Z,12.30
2018-09-13T03:33:34.798Z,12.30
2018-09-13T03:36:03.051Z,12.30
2018-09-13T03:38:31.311Z,12.30
2018-09-13T03:40:59.570Z,12.20
2018-09-13T03:43:27.818Z,12.20
2018-09-13T03:45:56.055Z,12.20
2018-09-13T03:48:24.303Z,12.20
2018-09-13T03:50:52.550Z,12.20
2018-09-13T03:53:20.796Z,12.20
2018-09-13T03:55:49.050Z,12.20
2018-09-13T03:58:17.293Z,12.20
2018-09-13T04:00:45.535Z,12.10
2018-09-13T04:03:13.833Z,12.10
2018-09-13T04:05:42.047Z,12.10
2018-09-13T04:08:10.302Z,12.00
2018-09-13T04:10:38.571Z,12.00
2018-09-13T04:13:06.837Z,11.90
2018-09-13T04:15:35.083Z,11.80
2018-09-13T04:18:03.331Z,11.80
2018-09-13T04:20:31.566Z,11.80
2018-09-13T04:22:59.799Z,11.80
2018-09-13T04:25:28.037Z,11.80
2018-09-13T04:27:56.285Z,11.80
2018-09-13T04:30:24.517Z,11.70
2018-09-13T04:32:52.756Z,11.70
2018-09-13T04:35:21.035Z,11.80
2018-09-13T04:37:49.270Z,11.70
2018-09-13T04:40:17.532Z,11.70
2018-09-13T04:42:45.815Z,11.70
2018-09-13T04:45:14.063Z,11.70
2018-09-13T04:47:42.331Z,11.70
2018-09-13T04:50:10.576Z,11.70
2018-09-13T04:52:38.840Z,11.70
2018-09-13T04:55:07.104Z,11.70
2018-09-13T04:57:35.459Z,11.80
2018-09-13T05:00:03.719Z,11.80
2018-09-13T05:02:31.972Z,11.90
2018-09-13T05:05:00.215Z,11.90
2018-09-13T05:07:28.478Z,11.90
2018-09-13T05:09:56.727Z,11.90
2018-09-13T05:12:24.995Z,11.90
2018-09-13T05:14:53.247Z,11.90
2018-09-13T05:17:21.493Z,11.90
2018-09-13T05:19:49.759Z,11.90
2018-09-13T05:22:18.012Z,11.90
2018-09-13T05:24:46.275Z,11.80
2018-09-13T05:27:14.502Z,11.80
2018-09-13T05:29:42.756Z,11.70
2018-09-13T05:32:11.015Z,11.80
2018-09-13T05:34:39.257Z,11.80
2018-09-13T05:37:07.512Z,11.80
2018-09-13T05:39:35.734Z,11.80
2018-09-13T05:42:03.985Z,11.90
2018-09-13T05:44:32.286Z,11.90
2018-09-13T05:47:00.506Z,11.90
2018-09-13T05:49:28.758Z,11.80
2018-09-13T05:51:57.021Z,11.80
2018-09-13T05:54:25.551Z,11.80
2018-09-13T05:56:53.791Z,11.80
2018-09-13T05:59:22.035Z,11.80
2018-09-13T06:01:50.278Z,11.80
2018-09-13T06:04:18.535Z,11.80
2018-09-13T06:06:47.175Z,11.90
2018-09-13T06:09:15.406Z,11.90
2018-09-13T06:11:43.688Z,12.10
2018-09-13T06:14:11.923Z,12.20
2018-09-13T06:16:40.173Z,12.30
2018-09-13T06:19:08.418Z,12.30
2018-09-13T06:21:36.663Z,12.30
2018-09-13T06:24:04.935Z,12.30
2018-09-13T06:26:33.181Z,12.40
2018-09-13T06:29:01.420Z,12.40
2018-09-13T06:31:29.658Z,12.50
2018-09-13T06:33:57.927Z,12.50
2018-09-13T06:36:26.220Z,12.60
2018-09-13T06:38:54.435Z,12.70
2018-09-13T06:41:22.684Z,12.80
2018-09-13T06:43:50.919Z,12.80
2018-09-13T06:46:19.178Z,12.80
2018-09-13T06:48:47.417Z,12.90
2018-09-13T06:51:15.647Z,12.90
2018-09-13T06:53:43.883Z,12.90
2018-09-13T06:56:12.131Z,12.90
2018-09-13T06:58:40.362Z,13.00
2018-09-13T07:01:08.603Z,13.00
2018-09-13T07:03:36.847Z,13.10
2018-09-13T07:06:05.091Z,13.30
2018-09-13T07:08:33.479Z,13.50
2018-09-13T07:11:01.721Z,13.70
2018-09-13T07:13:29.967Z,14.00
2018-09-13T07:15:58.195Z,14.30
2018-09-13T07:18:26.430Z,14.70
2018-09-13T07:20:54.671Z,15.30
2018-09-13T07:23:23.111Z,16.20
2018-09-13T07:25:51.379Z,17.20
2018-09-13T07:28:19.624Z,18.10
2018-09-13T07:30:47.904Z,18.70
2018-09-13T07:33:16.130Z,19.00
2018-09-13T07:35:44.367Z,19.40
2018-09-13T07:38:12.619Z,20.00
2018-09-13T07:40:40.863Z,20.70
2018-09-13T07:43:09.094Z,21.30
2018-09-13T07:45:37.339Z,21.90
2018-09-13T07:48:05.620Z,22.30
2018-09-13T07:50:33.864Z,22.80
2018-09-13T07:53:02.110Z,23.30
2018-09-13T07:55:37.159Z,23.40
2018-09-13T07:58:05.444Z,23.80
2018-09-13T08:00:33.685Z,23.80
2018-09-13T08:03:01.936Z,22.90
2018-09-13T08:05:30.168Z,22.40
2018-09-13T08:07:58.621Z,22.00
2018-09-13T08:10:26.972Z,22.00
2018-09-13T08:12:55.223Z,21.90
2018-09-13T08:15:23.469Z,21.70
2018-09-13T08:17:51.743Z,21.60
2018-09-13T08:20:19.987Z,21.30
2018-09-13T08:22:48.227Z,21.10
2018-09-13T08:25:16.459Z,20.90
2018-09-13T08:27:44.715Z,20.70
2018-09-13T08:30:14.343Z,20.40
2018-09-13T08:32:42.610Z,20.10
2018-09-13T08:35:10.891Z,19.70
2018-09-13T08:37:39.120Z,19.50
2018-09-13T08:40:07.412Z,19.10
2018-09-13T08:42:35.631Z,19.00
2018-09-13T08:45:03.904Z,18.60
2018-09-13T08:47:32.172Z,18.40
2018-09-13T08:50:00.415Z,18.10
2018-09-13T08:52:28.677Z,18.20
2018-09-13T08:54:56.955Z,18.30
2018-09-13T08:57:25.203Z,18.70
2018-09-13T08:59:53.457Z,19.20
2018-09-13T09:02:21.739Z,19.60
2018-09-13T09:04:49.985Z,20.00
2018-09-13T09:07:18.244Z,21.00
2018-09-13T09:09:46.492Z,22.10
2018-09-13T09:12:15.645Z,23.20
2018-09-13T09:14:44.831Z,24.30
2018-09-13T09:17:13.894Z,25.10
2018-09-13T09:19:42.786Z,25.60
2018-09-13T09:22:12.138Z,25.30
2018-09-13T09:24:41.602Z,25.10
2018-09-13T09:27:10.549Z,24.80
2018-09-13T09:29:38.848Z,24.90
2018-09-13T09:32:07.441Z,25.10
2018-09-13T09:34:35.726Z,25.60
2018-09-13T09:37:04.102Z,26.10
2018-09-13T09:39:32.360Z,26.50
2018-09-13T09:42:00.618Z,26.70
2018-09-13T09:44:28.896Z,27.00
2018-09-13T09:46:57.142Z,27.10
2018-09-13T09:49:25.405Z,27.80
2018-09-13T09:51:53.685Z,27.90
2018-09-13T09:54:21.927Z,28.00
2018-09-13T09:56:50.376Z,28.20
2018-09-13T09:59:18.505Z,28.10
2018-09-13T10:01:52.150Z,27.00
2018-09-13T10:04:20.497Z,26.90
2018-09-13T10:06:48.719Z,26.90
2018-09-13T10:09:16.987Z,27.20
2018-09-13T10:11:45.239Z,27.40
2018-09-13T10:14:13.485Z,27.20
2018-09-13T10:16:47.103Z,27.10
2018-09-13T10:19:20.831Z,27.10
2018-09-13T10:21:54.588Z,26.70
2018-09-13T10:24:28.328Z,26.40
2018-09-13T10:27:02.117Z,26.70
2018-09-13T10:29:35.884Z,26.50
2018-09-13T10:32:09.574Z,26.50
2018-09-13T10:34:43.300Z,26.20
2018-09-13T10:37:17.020Z,26.50
2018-09-13T10:39:50.804Z,26.30
2018-09-13T10:42:24.536Z,26.10
2018-09-13T10:44:58.322Z,26.40
2018-09-13T10:47:32.050Z,26.40
2018-09-13T10:50:05.740Z,26.30
2018-09-13T10:52:37.775Z,26.30
2018-09-13T10:55:06.043Z,26.10
2018-09-13T10:57:39.652Z,26.00
2018-09-13T11:00:07.900Z,25.90
2018-09-13T11:02:36.147Z,26.00
2018-09-13T11:05:04.566Z,26.00
2018-09-13T11:07:32.819Z,26.00
2018-09-13T11:10:01.088Z,26.00
2018-09-13T11:12:34.540Z,26.10
2018-09-13T11:15:06.509Z,26.10
2018-09-13T11:17:34.755Z,26.20
2018-09-13T11:20:03.029Z,26.50
2018-09-13T11:22:31.285Z,26.40
2018-09-13T11:24:59.544Z,25.80
2018-09-13T11:27:27.809Z,25.50
2018-09-13T11:29:56.074Z,25.10
2018-09-13T11:32:24.329Z,24.40
2018-09-13T11:34:52.578Z,24.10
2018-09-13T11:37:20.816Z,24.30
2018-09-13T11:39:49.077Z,24.50
2018-09-13T11:42:17.360Z,24.70
2018-09-13T11:44:45.612Z,24.80
2018-09-13T11:47:13.866Z,25.00
2018-09-13T11:49:42.126Z,24.40
2018-09-13T11:52:10.388Z,24.50
2018-09-13T11:54:38.632Z,24.90
2018-09-13T11:57:06.912Z,25.00
2018-09-13T11:59:35.158Z,25.10
2018-09-13T12:02:03.416Z,25.10
2018-09-13T12:04:31.678Z,24.90
2018-09-13T12:06:59.929Z,24.90
2018-09-13T12:09:28.206Z,24.70
2018-09-13T12:11:56.428Z,24.70
2018-09-13T12:14:24.691Z,24.40
2018-09-13T12:16:52.915Z,24.20
2018-09-13T12:19:21.213Z,24.10
2018-09-13T12:21:49.448Z,23.90
2018-09-13T12:24:17.720Z,23.60
2018-09-13T12:26:45.972Z,23.30
2018-09-13T12:29:14.235Z,23.10
2018-09-13T12:31:42.487Z,22.90
2018-09-13T12:34:10.776Z,22.80
2018-09-13T12:36:39.012Z,22.80
2018-09-13T12:39:09.135Z,22.90
2018-09-13T12:41:37.396Z,23.00
2018-09-13T12:44:05.655Z,23.00
2018-09-13T12:46:33.937Z,23.00
2018-09-13T12:49:02.183Z,23.00
2018-09-13T12:51:30.636Z,23.00
2018-09-13T12:53:58.923Z,23.10
2018-09-13T12:56:27.173Z,23.10
2018-09-13T12:58:55.423Z,23.10
2018-09-13T13:01:23.662Z,23.00
2018-09-13T13:03:51.897Z,23.00
2018-09-13T13:06:20.123Z,22.90
2018-09-13T13:08:48.470Z,22.80
2018-09-13T13:11:16.665Z,22.80
2018-09-13T13:13:44.903Z,22.80
2018-09-13T13:16:13.163Z,22.80
2018-09-13T13:18:41.412Z,22.80
2018-09-13T13:21:09.668Z,22.80
2018-09-13T13:23:37.935Z,22.70
2018-09-13T13:26:06.207Z,22.60
2018-09-13T13:28:34.447Z,22.60
2018-09-13T13:31:02.695Z,22.50
2018-09-13T13:33:30.943Z,22.40
2018-09-13T13:35:59.240Z,22.40
2018-09-13T13:38:27.495Z,22.50
2018-09-13T13:40:55.749Z,22.50
2018-09-13T13:43:23.991Z,22.40
2018-09-13T13:45:52.586Z,22.30
2018-09-13T13:48:20.849Z,22.10
2018-09-13T13:50:49.123Z,22.10
2018-09-13T13:53:17.371Z,22.10
2018-09-13T13:55:45.627Z,21.80
2018-09-13T13:58:13.875Z,21.90
2018-09-13T14:00:42.129Z,21.80
2018-09-13T14:03:10.400Z,21.70
2018-09-13T14:05:38.656Z,21.70
2018-09-13T14:08:06.911Z,21.80
2018-09-13T14:10:35.176Z,21.80
2018-09-13T14:13:03.446Z,21.90
2018-09-13T14:15:31.676Z,21.60
2018-09-13T14:17:59.928Z,21.30
2018-09-13T14:20:28.222Z,21.10
2018-09-13T14:22:56.432Z,21.10
2018-09-13T14:25:24.699Z,21.00
2018-09-13T14:27:52.963Z,21.20
2018-09-13T14:30:21.227Z,21.20
2018-09-13T14:32:49.535Z,21.40
2018-09-13T14:35:17.806Z,21.40
2018-09-13T14:37:46.056Z,21.50
2018-09-13T14:40:14.301Z,21.60
2018-09-13T14:42:42.551Z,21.60
2018-09-13T14:45:10.806Z,21.60
2018-09-13T14:47:39.137Z,21.80
2018-09-13T14:50:07.357Z,21.70
2018-09-13T14:52:35.595Z,21.40
2018-09-13T14:55:03.843Z,21.10
2018-09-13T14:57:32.095Z,20.60
2018-09-13T15:00:00.363Z,20.60
2018-09-13T15:02:28.639Z,20.10
2018-09-13T15:04:56.890Z,19.90
2018-09-13T15:07:25.227Z,19.80
2018-09-13T15:09:53.428Z,20.00
2018-09-13T15:12:22.495Z,20.10
2018-09-13T15:14:50.738Z,20.30
2018-09-13T15:17:19.008Z,20.10
2018-09-13T15:19:47.267Z,20.10
2018-09-13T15:22:15.524Z,19.90
2018-09-13T15:24:43.851Z,19.70
2018-09-13T15:27:12.015Z,19.60
2018-09-13T15:29:40.340Z,19.50
2018-09-13T15:32:08.683Z,19.50
2018-09-13T15:34:36.930Z,19.50
2018-09-13T15:37:05.589Z,19.50
2018-09-13T15:39:34.039Z,19.60
2018-09-13T15:42:02.311Z,19.40
2018-09-13T15:44:30.543Z,19.30
2018-09-13T15:46:59.439Z,19.30
2018-09-13T15:49:27.884Z,19.30
2018-09-13T15:51:56.136Z,19.40
2018-09-13T15:54:24.392Z,19.40
2018-09-13T15:56:52.799Z,19.40
2018-09-13T15:59:21.086Z,19.30
2018-09-13T16:01:49.317Z,19.30
2018-09-13T16:04:17.933Z,19.30
2018-09-13T16:06:46.195Z,19.30
2018-09-13T16:09:14.479Z,19.30
2018-09-13T16:11:42.888Z,19.30
2018-09-13T16:14:11.183Z,19.30
2018-09-13T16:16:39.413Z,19.30
2018-09-13T16:19:07.751Z,19.20
2018-09-13T16:21:36.128Z,19.20
2018-09-13T16:24:04.386Z,19.20
2018-09-13T16:26:32.673Z,19.20
2018-09-13T16:29:01.019Z,19.30
2018-09-13T16:31:29.273Z,19.40
2018-09-13T16:33:57.588Z,19.40
2018-09-13T16:36:30.768Z,19.50
2018-09-13T16:39:06.651Z,19.50
2018-09-13T16:41:43.045Z,19.50
2018-09-13T16:44:18.972Z,19.60
2018-09-13T16:46:56.085Z,19.60
2018-09-13T16:49:25.657Z,19.60
2018-09-13T16:51:53.960Z,19.60
2018-09-13T16:54:22.219Z,19.50
2018-09-13T16:56:50.481Z,19.50
2018-09-13T16:59:18.842Z,19.40
2018-09-13T17:01:47.093Z,19.40
2018-09-13T17:04:15.380Z,19.30
2018-09-13T17:06:43.906Z,19.30
2018-09-13T17:09:12.297Z,19.20
2018-09-13T17:11:40.559Z,19.20
2018-09-13T17:14:08.851Z,19.20
2018-09-13T17:16:37.213Z,19.20
2018-09-13T17:19:05.459Z,19.10
2018-09-13T17:21:33.837Z,19.10
2018-09-13T17:24:02.207Z,19.00
2018-09-13T17:26:30.709Z,19.00
2018-09-13T17:28:59.508Z,18.90
2018-09-13T17:31:27.927Z,18.90
2018-09-13T17:33:56.225Z,18.80
2018-09-13T17:36:24.729Z,18.70
2018-09-13T17:38:53.118Z,18.60
2018-09-13T17:41:21.447Z,18.50
2018-09-13T17:43:49.985Z,18.40
2018-09-13T17:46:18.217Z,18.40
2018-09-13T17:48:46.803Z,18.20
2018-09-13T17:51:15.056Z,18.10
2018-09-13T17:53:43.347Z,18.00
2018-09-13T17:56:11.680Z,17.90
2018-09-13T17:58:39.951Z,17.80
2018-09-13T18:01:08.199Z,17.80
2018-09-13T18:03:36.586Z,17.70
2018-09-13T18:06:04.763Z,17.70
2018-09-13T18:08:33.048Z,17.70
2018-09-13T18:11:01.511Z,17.60
2018-09-13T18:13:29.952Z,17.60
2018-09-13T18:15:58.205Z,17.50
2018-09-13T18:18:26.642Z,17.40
2018-09-13T18:20:54.984Z,17.40
2018-09-13T18:23:23.299Z,17.30
2018-09-13T18:25:51.653Z,17.30
2018-09-13T18:28:20.015Z,17.20
2018-09-13T18:30:48.292Z,17.20
2018-09-13T18:33:16.559Z,17.30
2018-09-13T18:35:44.926Z,17.30
2018-09-13T18:38:13.195Z,17.40
2018-09-13T18:40:41.507Z,17.40
2018-09-13T18:43:10.010Z,17.50
2018-09-13T18:45:38.427Z,17.50
2018-09-13T18:48:06.685Z,17.50
2018-09-13T18:50:35.155Z,17.50
2018-09-13T18:53:03.676Z,17.40
2018-09-13T18:55:31.943Z,17.40
2018-09-13T18:58:00.207Z,17.40
2018-09-13T19:00:28.701Z,17.30
2018-09-13T19:02:56.995Z,17.30
2018-09-13T19:05:25.283Z,17.20
2018-09-13T19:07:53.786Z,17.20
2018-09-13T19:10:22.148Z,17.20
2018-09-13T19:12:50.407Z,17.10
2018-09-13T19:15:18.663Z,17.10
2018-09-13T19:17:46.938Z,17.00
2018-09-13T19:20:15.200Z,17.00
2018-09-13T19:22:43.436Z,17.00
2018-09-13T19:25:11.696Z,17.00
2018-09-13T19:27:39.945Z,17.00
2018-09-13T19:30:08.200Z,17.00
2018-09-13T19:32:36.487Z,16.90
2018-09-13T19:35:04.812Z,16.90
2018-09-13T19:37:33.062Z,16.90
2018-09-13T19:40:01.303Z,16.80
2018-09-13T19:42:29.609Z,16.80
2018-09-13T19:44:57.847Z,16.70
2018-09-13T19:47:26.086Z,16.70
2018-09-13T19:49:54.399Z,16.70
2018-09-13T19:52:22.640Z,16.70
2018-09-13T19:54:50.884Z,16.70
2018-09-13T19:57:19.164Z,16.60
2018-09-13T19:59:47.404Z,16.60
2018-09-13T20:02:15.663Z,16.50
2018-09-13T20:04:44.046Z,16.40
2018-09-13T20:07:12.311Z,16.40
2018-09-13T20:09:40.565Z,16.40
2018-09-13T20:12:08.895Z,16.30
2018-09-13T20:14:37.140Z,16.30
2018-09-13T20:17:05.408Z,16.30
2018-09-13T20:19:33.679Z,16.30
2018-09-13T20:22:01.940Z,16.30
2018-09-13T20:24:30.264Z,16.30
2018-09-13T20:26:58.473Z,16.30
2018-09-13T20:29:26.740Z,16.20
2018-09-13T20:31:54.988Z,16.20
2018-09-13T20:34:23.243Z,16.20
2018-09-13T20:36:51.492Z,16.10
2018-09-13T20:39:19.859Z,16.20
2018-09-13T20:41:48.396Z,16.10
2018-09-13T20:44:16.655Z,16.10
2018-09-13T20:46:44.936Z,16.00
2018-09-13T20:49:13.192Z,15.90
2018-09-13T20:51:41.446Z,16.00
2018-09-13T20:54:09.767Z,15.90
2018-09-13T20:56:38.008Z,15.80
2018-09-13T20:59:06.279Z,15.80
2018-09-13T21:01:34.578Z,15.70
2018-09-13T21:04:02.848Z,15.70
2018-09-13T21:06:31.111Z,15.60
2018-09-13T21:08:59.347Z,15.50
2018-09-13T21:11:27.627Z,15.50
2018-09-13T21:13:55.863Z,15.40
2018-09-13T21:16:24.149Z,15.40
2018-09-13T21:18:52.419Z,15.30
2018-09-13T21:21:20.680Z,15.20
2018-09-13T21:23:48.944Z,15.20
2018-09-13T21:26:17.211Z,15.10
2018-09-13T21:28:45.485Z,15.00
2018-09-13T21:31:13.761Z,15.00
2018-09-13T21:33:42.026Z,15.00
2018-09-13T21:36:10.326Z,15.00
2018-09-13T21:38:38.575Z,14.90
2018-09-13T21:41:06.838Z,14.80
2018-09-13T21:43:35.244Z,14.80
2018-09-13T21:46:03.491Z,14.70
2018-09-13T21:48:31.731Z,14.70
2018-09-13T21:51:00.063Z,14.70
2018-09-13T21:53:28.358Z,14.60
2018-09-13T21:55:56.668Z,14.60
2018-09-13T21:58:25.123Z,14.50
2018-09-13T22:00:53.395Z,14.40
2018-09-13T22:03:21.654Z,14.30
2018-09-13T22:05:49.947Z,14.20
2018-09-13T22:08:18.281Z,14.10
2018-09-13T22:10:46.520Z,14.10
2018-09-13T22:13:14.770Z,14.00
2018-09-13T22:15:43.067Z,13.90
2018-09-13T22:18:11.315Z,13.90
2018-09-13T22:20:39.595Z,13.80
2018-09-13T22:23:08.012Z,13.70
2018-09-13T22:25:36.328Z,13.60
2018-09-13T22:28:04.712Z,13.50
2018-09-13T22:30:32.948Z,13.40
2018-09-13T22:33:01.200Z,13.40
2018-09-13T22:35:29.455Z,13.30
2018-09-13T22:37:58.111Z,13.20
2018-09-13T22:40:26.354Z,13.10
2018-09-13T22:42:54.596Z,13.10
2018-09-13T22:45:22.843Z,13.10
2018-09-13T22:47:51.104Z,13.10
2018-09-13T22:50:19.354Z,13.10
2018-09-13T22:52:47.595Z,13.10
2018-09-13T22:55:15.850Z,13.10
2018-09-13T22:57:44.111Z,13.00
2018-09-13T23:00:12.394Z,13.00
2018-09-13T23:02:45.995Z,13.00
2018-09-13T23:05:14.255Z,13.00
2018-09-13T23:07:42.644Z,13.00
2018-09-13T23:10:10.927Z,13.10
2018-09-13T23:12:39.179Z,13.10
2018-09-13T23:15:07.630Z,13.10
2018-09-13T23:17:35.956Z,13.10
2018-09-13T23:20:04.347Z,13.00
2018-09-13T23:22:32.604Z,12.90
2018-09-13T23:25:00.857Z,12.80
2018-09-13T23:27:29.117Z,12.70
2018-09-13T23:29:57.357Z,12.60
2018-09-13T23:32:25.764Z,12.60
2018-09-13T23:34:54.156Z,12.50
2018-09-13T23:37:22.404Z,12.40
2018-09-13T23:39:50.749Z,12.40
2018-09-13T23:42:18.907Z,12.30
2018-09-13T23:44:47.169Z,12.20
2018-09-13T23:47:15.420Z,12.20
2018-09-13T23:49:43.679Z,12.20
2018-09-13T23:52:11.943Z,12.10
2018-09-13T23:54:40.210Z,12.10
2018-09-13T23:57:08.447Z,12.10
2018-09-13T23:59:36.733Z,12.10
